Time;durP1;ratioP1;P1;durP2;ratioP2;P2;SDS_P1;SDS_P2;PMS_P1;PMS_P2;Temp;Humidity;BMP_temperature;BMP_pressure;BME280_temperature;BME280_humidity;BME280_pressure;Samples;Min_cycle;Max_cycle;Signal;HPM_P1;HPM_P2
2021/09/13 00:01:26;;;;;;;22.70;11.30;;;;;;;12.21;75.17;100327.03;1394338;88;21363;-87
2021/09/13 00:03:53;;;;;;;25.20;9.03;;;;;;;12.18;74.74;100327.67;1394463;88;21525;-87
2021/09/13 00:06:20;;;;;;;19.97;9.67;;;;;;;12.16;74.41;100323.02;1394762;88;21533;-87
2021/09/13 00:08:47;;;;;;;21.50;9.83;;;;;;;12.16;74.56;100326.99;1395067;88;21524;-88
2021/09/13 00:11:15;;;;;;;22.57;9.67;;;;;;;12.16;74.70;100323.52;1394215;88;21378;-88
2021/09/13 00:13:42;;;;;;;20.87;9.53;;;;;;;12.18;74.20;100322.37;1394613;88;21474;-88
2021/09/13 00:16:09;;;;;;;14.90;8.13;;;;;;;12.19;74.82;100321.36;1394466;88;22146;-88
2021/09/13 00:18:36;;;;;;;21.77;9.40;;;;;;;12.15;75.07;100322.69;1394084;88;21466;-88
2021/09/13 00:21:04;;;;;;;18.13;9.57;;;;;;;12.13;75.10;100329.97;1375673;89;21469;-87
2021/09/13 00:23:31;;;;;;;16.40;8.13;;;;;;;12.11;75.12;100333.30;1394339;88;22087;-87
2021/09/13 00:25:58;;;;;;;16.07;9.00;;;;;;;12.15;74.72;100326.67;1394129;88;21458;-87
2021/09/13 00:28:27;;;;;;;18.87;8.93;;;;;;;12.16;74.99;100325.67;1394201;88;21351;-87
2021/09/13 00:30:54;;;;;;;17.60;9.30;;;;;;;12.14;75.14;100326.34;1394099;88;21245;-88
2021/09/13 00:33:21;;;;;;;17.10;8.30;;;;;;;12.08;76.09;100331.44;1394451;88;21511;-87
2021/09/13 00:35:48;;;;;;;14.73;7.67;;;;;;;12.03;75.93;100325.30;1394313;88;21282;-87
2021/09/13 00:38:16;;;;;;;15.70;7.60;;;;;;;12.01;75.98;100326.45;1394011;88;21237;-89
2021/09/13 00:40:43;;;;;;;13.30;7.03;;;;;;;11.94;75.22;100331.57;1394533;88;21282;-88
2021/09/13 00:43:11;;;;;;;16.20;8.67;;;;;;;11.90;75.35;100328.87;1394677;88;21479;-88
2021/09/13 00:45:40;;;;;;;14.37;6.60;;;;;;;11.90;74.72;100328.87;1374333;89;21339;-88
2021/09/13 00:48:07;;;;;;;13.23;6.27;;;;;;;11.87;75.16;100330.52;1394238;88;21237;-87
2021/09/13 00:50:38;;;;;;;16.30;8.33;;;;;;;11.83;74.47;100324.68;1374411;90;21450;-87
2021/09/13 00:53:36;;;;;;;15.88;7.40;;;;;;;11.83;74.21;100326.01;1399413;87;21625;-86
2021/09/13 00:56:05;;;;;;;12.53;6.80;;;;;;;11.83;74.45;100326.01;1394619;87;21421;-87
2021/09/13 00:58:34;;;;;;;16.37;8.53;;;;;;;11.83;74.53;100325.18;1376036;89;21599;-87
2021/09/13 01:01:03;;;;;;;24.13;9.63;;;;;;;11.82;74.09;100324.83;1374457;90;21272;-87
2021/09/13 01:03:34;;;;;;;16.70;7.40;;;;;;;11.83;74.12;100321.20;1394608;88;21274;-86
2021/09/13 01:06:02;;;;;;;14.37;8.03;;;;;;;11.84;74.10;100325.01;1374566;89;22159;-87
2021/09/13 01:08:29;;;;;;;19.20;9.40;;;;;;;11.85;73.87;100324.03;1394388;88;21311;-87
2021/09/13 01:10:57;;;;;;;13.03;7.27;;;;;;;11.90;74.06;100322.25;1374607;90;21549;-88
2021/09/13 01:13:25;;;;;;;12.23;7.43;;;;;;;11.91;74.02;100317.27;1394674;88;21326;-88
2021/09/13 01:15:53;;;;;;;16.90;7.57;;;;;;;11.94;74.09;100322.28;1394465;88;21281;-87
2021/09/13 01:18:20;;;;;;;11.83;7.30;;;;;;;11.90;74.81;100322.25;1394453;88;21406;-87
2021/09/13 01:20:48;;;;;;;20.50;8.00;;;;;;;11.85;76.04;100315.23;1394439;88;21311;-88
2021/09/13 01:23:36;;;;;;;15.63;9.30;;;;;;;11.82;76.24;100320.34;1394473;88;21319;-87
2021/09/13 01:26:05;;;;;;;15.60;9.17;;;;;;;11.79;75.75;100315.86;1337894;90;21496;-87
2021/09/13 01:28:33;;;;;;;20.10;8.80;;;;;;;11.72;75.86;100325.78;1394935;88;21296;-87
2021/09/13 01:31:01;;;;;;;23.50;9.20;;;;;;;11.69;75.45;100322.12;1374424;89;21377;-88
2021/09/13 01:33:28;;;;;;;16.57;9.20;;;;;;;11.66;75.37;100326.41;1394428;88;21450;-87
2021/09/13 01:35:55;;;;;;;20.67;8.97;;;;;;;11.62;75.71;100326.37;1374555;89;21324;-87
2021/09/13 01:38:26;;;;;;;20.40;8.47;;;;;;;11.59;75.91;100323.20;1375375;89;21252;-88
2021/09/13 01:40:53;;;;;;;17.55;9.20;;;;;;;11.57;75.48;100326.03;1374639;89;22152;-87
2021/09/13 01:43:21;;;;;;;15.40;8.53;;;;;;;11.57;75.15;100326.53;1394350;88;21215;-87
2021/09/13 01:45:48;;;;;;;35.57;8.90;;;;;;;11.56;74.90;100328.33;1374528;89;21332;-87
2021/09/13 01:48:18;;;;;;;16.43;8.37;;;;;;;11.57;74.64;100328.68;1394544;88;21362;-87
2021/09/13 01:50:47;;;;;;;18.57;8.20;;;;;;;11.57;74.53;100327.86;1374461;90;21318;-87
2021/09/13 01:53:14;;;;;;;14.43;7.83;;;;;;;11.57;74.71;100329.18;1394507;88;21326;-87
2021/09/13 01:55:47;;;;;;;15.90;8.63;;;;;;;11.57;74.64;100326.03;1375338;89;21582;-87
2021/09/13 01:58:17;;;;;;;12.73;6.73;;;;;;;11.60;74.83;100327.04;1395077;87;21429;-87
2021/09/13 02:00:45;;;;;;;15.07;7.47;;;;;;;11.62;75.03;100322.89;1394945;88;22328;-86
2021/09/13 02:03:12;;;;;;;15.23;7.80;;;;;;;11.64;75.04;100327.05;1394346;88;21170;-87
2021/09/13 02:05:39;;;;;;;12.70;6.10;;;;;;;11.62;75.04;100318.91;1394463;88;21444;-86
2021/09/13 02:08:06;;;;;;;14.80;5.97;;;;;;;11.64;75.13;100324.41;1370167;90;21384;-86
2021/09/13 02:10:33;;;;;;;9.70;6.60;;;;;;;11.62;75.19;100323.72;1363374;91;21444;-86
2021/09/13 02:13:01;;;;;;;21.70;6.53;;;;;;;11.62;75.27;100319.74;1375994;89;22626;-86
2021/09/13 02:15:28;;;;;;;15.43;7.83;;;;;;;11.64;75.43;100324.41;1376031;90;21380;-86
2021/09/13 02:17:56;;;;;;;16.03;6.80;;;;;;;11.63;75.57;100325.40;1399762;87;22272;-86
2021/09/13 02:20:25;;;;;;;17.57;7.20;;;;;;;11.65;75.44;100322.11;1399638;88;21274;-87
2021/09/13 02:22:52;;;;;;;15.13;6.40;;;;;;;11.65;75.29;100326.08;1385310;89;21443;-87
2021/09/13 02:25:19;;;;;;;16.07;7.77;;;;;;;11.62;75.21;100326.37;1399773;88;21214;-86
2021/09/13 02:27:47;;;;;;;16.97;6.40;;;;;;;11.61;75.12;100322.06;1400393;88;21229;-85
2021/09/13 02:30:15;;;;;;;18.83;8.43;;;;;;;11.60;75.08;100316.44;1400014;87;21420;-85
2021/09/13 02:32:42;;;;;;;22.03;7.50;;;;;;;11.60;74.98;100319.09;1399715;88;21332;-85
2021/09/13 02:35:10;;;;;;;13.67;7.53;;;;;;;11.58;75.20;100322.38;1399968;87;21244;-85
2021/09/13 02:37:37;;;;;;;16.60;6.67;;;;;;;11.50;76.92;100327.12;1399585;88;22102;-86
2021/09/13 02:40:09;;;;;;;14.87;6.83;;;;;;;11.51;76.46;100326.66;1399683;88;21258;-86
2021/09/13 02:42:36;;;;;;;15.87;6.10;;;;;;;11.47;77.73;100323.97;1400360;87;21288;-87
2021/09/13 02:45:05;;;;;;;15.63;7.27;;;;;;;11.45;77.10;100328.58;1399857;87;21333;-86
2021/09/13 02:47:36;;;;;;;17.27;7.50;;;;;;;11.38;77.74;100327.05;1399927;87;22242;-86
2021/09/13 02:50:07;;;;;;;9.13;5.87;;;;;;;11.32;77.85;100329.50;1400265;88;21385;-86
2021/09/13 02:52:35;;;;;;;11.25;5.12;;;;;;;11.25;77.15;100332.77;1400014;88;22130;-86
2021/09/13 02:55:04;;;;;;;13.03;6.57;;;;;;;11.21;76.65;100327.42;1385048;89;21431;-86
2021/09/13 02:57:31;;;;;;;17.17;7.53;;;;;;;11.15;76.20;100328.05;1402651;87;21295;-87
2021/09/13 02:59:58;;;;;;;12.77;7.23;;;;;;;11.07;75.89;100328.80;1402097;88;22270;-86
2021/09/13 03:02:26;;;;;;;18.30;7.67;;;;;;;10.97;76.72;100326.75;1402035;88;21198;-86
2021/09/13 03:04:53;;;;;;;13.17;7.80;;;;;;;10.94;76.43;100330.20;1401915;88;21154;-86
2021/09/13 03:07:22;;;;;;;12.47;6.40;;;;;;;10.93;75.89;100335.13;1402242;88;21397;-87
2021/09/13 03:09:49;;;;;;;12.73;6.50;;;;;;;10.86;76.22;100335.41;1402090;88;21200;-87
2021/09/13 03:12:16;;;;;;;11.67;6.23;;;;;;;10.78;76.38;100335.66;1383506;89;21339;-86
2021/09/13 03:14:44;;;;;;;15.00;6.07;;;;;;;10.72;76.45;100346.03;1402090;88;21140;-85
2021/09/13 03:17:11;;;;;;;13.50;6.50;;;;;;;10.61;76.53;100336.48;1402522;88;22780;-86
2021/09/13 03:19:38;;;;;;;13.20;6.53;;;;;;;10.57;76.27;100337.29;1402211;88;21412;-85
2021/09/13 03:22:05;;;;;;;13.67;6.20;;;;;;;10.58;76.53;100330.17;1402246;88;21479;-86
2021/09/13 03:24:33;;;;;;;14.07;7.27;;;;;;;10.60;76.66;100334.34;1402299;88;21235;-85
2021/09/13 03:27:00;;;;;;;14.80;7.17;;;;;;;10.65;76.41;100339.20;1401949;88;22198;-86
2021/09/13 03:29:29;;;;;;;13.20;5.43;;;;;;;10.67;77.46;100331.09;1402871;88;21367;-85
2021/09/13 03:32:00;;;;;;;17.83;7.43;;;;;;;10.68;77.33;100331.45;1402158;88;21390;-85
2021/09/13 03:34:28;;;;;;;16.87;7.20;;;;;;;10.69;77.15;100335.25;1402058;88;21332;-85
2021/09/13 03:36:57;;;;;;;10.27;5.87;;;;;;;10.72;76.86;100336.77;1402299;88;22382;-85
2021/09/13 03:39:24;;;;;;;15.90;6.10;;;;;;;10.68;78.70;100335.42;1401888;88;21221;-85
2021/09/13 03:41:52;;;;;;;12.47;6.77;;;;;;;10.69;77.79;100338.39;1401966;88;21457;-85
2021/09/13 03:44:19;;;;;;;13.57;7.10;;;;;;;10.68;78.08;100342.03;1402075;88;21198;-86
2021/09/13 03:46:46;;;;;;;14.07;6.83;;;;;;;10.65;78.42;100338.37;1401834;88;21184;-86
2021/09/13 03:49:13;;;;;;;15.80;8.67;;;;;;;10.66;79.28;100339.53;1402265;88;21273;-86
2021/09/13 03:51:44;;;;;;;14.23;6.60;;;;;;;10.70;78.34;100344.02;1402036;88;21332;-86
2021/09/13 03:54:11;;;;;;;16.67;9.05;;;;;;;10.71;77.87;100347.03;1403313;88;22395;-86
2021/09/13 03:56:41;;;;;;;16.17;9.23;;;;;;;10.72;78.19;100346.86;1402083;88;21236;-86
2021/09/13 03:59:24;;;;;;;14.13;7.55;;;;;;;10.74;78.00;100350.20;1384728;89;21535;-86
2021/09/13 04:01:51;;;;;;;11.90;6.67;;;;;;;10.74;77.76;100355.49;1399953;88;21347;-86
2021/09/13 04:04:22;;;;;;;12.07;6.63;;;;;;;10.75;77.62;100349.20;1384863;89;22204;-88
2021/09/13 04:06:52;;;;;;;12.40;6.60;;;;;;;10.78;77.54;100355.52;1399747;88;21325;-87
2021/09/13 04:12:02;;;;;;;11.80;6.47;;;;;;;10.85;77.31;100359.74;1399062;87;22242;-87
2021/09/13 04:14:30;;;;;;;13.93;6.07;;;;;;;10.86;77.54;100359.25;1397843;88;22289;-88
2021/09/13 04:16:59;;;;;;;12.30;5.67;;;;;;;10.79;79.34;100358.53;1399338;88;21475;-86
2021/09/13 04:19:32;;;;;;;14.17;7.37;;;;;;;10.82;79.29;100354.75;1399723;87;22101;-88
2021/09/13 04:22:00;;;;;;;19.47;7.33;;;;;;;10.82;79.25;100360.05;1399769;88;21200;-88
2021/09/13 04:24:27;;;;;;;11.87;6.53;;;;;;;10.86;78.29;100359.25;1399667;87;21214;-88
2021/09/13 04:26:54;;;;;;;13.47;6.50;;;;;;;10.88;77.93;100356.80;1399781;88;22203;-87
2021/09/13 04:29:21;;;;;;;13.43;7.40;;;;;;;10.91;77.69;100363.61;1399691;87;21266;-86
2021/09/13 04:31:48;;;;;;;31.93;7.80;;;;;;;10.95;77.55;100363.63;1399794;88;21280;-87
2021/09/13 04:34:16;;;;;;;73.97;9.20;;;;;;;11.00;77.45;100365.34;1399716;87;21281;-90
2021/09/13 04:36:43;;;;;;;83.70;11.60;;;;;;;11.07;77.31;100364.55;1399883;88;21326;-90
2021/09/13 04:39:10;;;;;;;58.40;8.80;;;;;;;11.11;77.62;100358.98;1397192;88;21273;-89
2021/09/13 04:41:37;;;;;;;29.77;7.20;;;;;;;11.15;77.30;100363.80;1399658;88;21199;-89
2021/09/13 04:44:04;;;;;;;30.87;7.10;;;;;;;11.17;77.83;100366.31;1382402;89;21287;-88
2021/09/13 04:46:32;;;;;;;27.90;7.03;;;;;;;11.20;78.17;100363.36;1399626;87;22086;-90
2021/09/13 04:48:59;;;;;;;21.87;6.93;;;;;;;11.28;77.50;100362.93;1398590;87;21274;-88
2021/09/13 04:51:38;;;;;;;40.67;8.63;;;;;;;11.35;77.29;100364.96;1398730;88;21347;-89
2021/09/13 04:54:06;;;;;;;51.43;9.70;;;;;;;11.44;77.03;100360.88;1398649;91;21332;-89
2021/09/13 04:56:35;;;;;;;24.23;6.23;;;;;;;11.54;76.92;100363.45;1399512;87;21265;-88
2021/09/13 04:59:03;;;;;;;20.97;6.67;;;;;;;11.65;76.84;100365.84;1398705;86;21340;-89
2021/09/13 05:01:39;;;;;;;19.70;7.00;;;;;;;11.75;76.88;100362.58;1401971;88;21538;-87
2021/09/13 05:04:09;;;;;;;23.43;6.70;;;;;;;11.82;76.53;100365.42;1400994;88;21259;-90
2021/09/13 05:06:39;;;;;;;27.60;7.37;;;;;;;11.92;76.61;100360.06;1402021;88;21502;-90
2021/09/13 05:09:06;;;;;;;13.37;7.73;;;;;;;12.06;76.10;100352.84;1401978;88;21272;-90
2021/09/13 05:11:34;;;;;;;11.90;7.10;;;;;;;12.22;76.02;100354.71;1383251;89;21229;-91
2021/09/13 05:14:01;;;;;;;13.13;8.07;;;;;;;12.37;76.30;100358.44;1401428;88;21288;-89
2021/09/13 05:16:31;;;;;;;12.37;8.00;;;;;;;12.53;76.08;100357.64;1402017;88;21266;-90
2021/09/13 05:18:58;;;;;;;17.13;8.60;;;;;;;12.70;76.17;100357.69;1400335;89;21280;-91
2021/09/13 05:21:26;;;;;;;19.53;9.73;;;;;;;12.88;76.75;100358.36;1401049;88;22065;-88
2021/09/13 05:23:54;;;;;;;21.93;9.17;;;;;;;13.05;76.48;100361.37;1402289;88;21398;-90
2021/09/13 05:26:21;;;;;;;26.47;9.50;;;;;;;13.17;76.49;100363.20;1401664;87;21220;-90
2021/09/13 05:28:48;;;;;;;23.27;9.97;;;;;;;13.26;76.24;100369.37;1400733;88;21273;-88
2021/09/13 05:31:16;;;;;;;18.97;8.10;;;;;;;13.36;76.34;100368.72;1382160;89;21200;-88
2021/09/13 05:33:43;;;;;;;16.33;9.37;;;;;;;13.52;76.03;100371.38;1401785;87;22189;-88
2021/09/13 05:36:10;;;;;;;15.27;7.60;;;;;;;13.64;76.25;100371.85;1401941;88;21192;-88
2021/09/13 05:38:37;;;;;;;12.63;7.87;;;;;;;13.73;76.14;100380.64;1402288;87;22262;-89
2021/09/13 05:41:04;;;;;;;22.83;9.17;;;;;;;13.86;75.88;100382.27;1402308;88;21178;-88
2021/09/13 05:43:35;;;;;;;19.00;10.07;;;;;;;13.99;75.90;100381.75;1401938;88;21258;-88
2021/09/13 05:46:02;;;;;;;17.27;8.38;;;;;;;14.14;75.65;100389.84;1402414;88;21391;-88
2021/09/13 05:48:29;;;;;;;17.37;8.47;;;;;;;14.31;75.50;100385.30;1402208;88;21339;-88
2021/09/13 05:50:57;;;;;;;19.37;7.80;;;;;;;14.49;75.32;100382.38;1402231;88;21488;-89
2021/09/13 05:53:27;;;;;;;27.07;7.77;;;;;;;14.62;75.29;100390.67;1402021;88;21443;-89
2021/09/13 05:55:54;;;;;;;11.53;7.37;;;;;;;14.67;75.51;100386.96;1402506;88;21325;-91
2021/09/13 05:58:22;;;;;;;15.17;7.33;;;;;;;14.73;75.64;100389.42;1402153;88;21228;-88
2021/09/13 06:00:52;;;;;;;19.60;7.37;;;;;;;14.81;75.62;100386.21;1401805;88;21274;-89
2021/09/13 06:03:19;;;;;;;20.15;6.90;;;;;;;14.95;75.41;100385.14;1402334;88;21250;-89
2021/09/13 06:05:47;;;;;;;27.43;9.27;;;;;;;15.15;75.13;100376.98;1402395;87;21465;-90
2021/09/13 06:08:15;;;;;;;17.60;7.53;;;;;;;15.28;75.17;100377.23;1402178;88;21324;-91
2021/09/13 06:10:42;;;;;;;10.10;6.47;;;;;;;15.39;74.80;100372.45;1402173;88;21280;-89
2021/09/13 06:13:11;;;;;;;13.23;7.00;;;;;;;15.61;74.39;100381.44;1402680;88;21398;-89
2021/09/13 06:15:40;;;;;;;10.23;7.00;;;;;;;15.76;74.21;100379.64;1401940;87;21431;-91
2021/09/13 06:18:10;;;;;;;12.70;6.50;;;;;;;15.95;73.67;100380.95;1401060;89;21418;-90
2021/09/13 06:20:43;;;;;;;17.75;7.17;;;;;;;16.15;73.40;100384.72;1401195;88;22088;-88
2021/09/13 06:23:12;;;;;;;15.53;6.40;;;;;;;16.31;72.79;100381.52;1402125;88;21258;-90
2021/09/13 06:25:41;;;;;;;10.97;6.40;;;;;;;16.51;72.15;100383.92;1401957;88;22169;-90
2021/09/13 06:28:09;;;;;;;9.53;5.60;;;;;;;16.66;71.59;100383.92;1383087;89;21383;-90
2021/09/13 06:30:36;;;;;;;11.23;6.40;;;;;;;16.76;71.03;100387.61;1402113;88;21397;-90
2021/09/13 06:33:04;;;;;;;9.77;6.70;;;;;;;16.88;70.79;100382.11;1402101;88;21369;-89
2021/09/13 06:35:31;;;;;;;11.27;6.13;;;;;;;17.02;70.53;100374.55;1402136;88;22108;-90
2021/09/13 06:37:59;;;;;;;8.97;5.27;;;;;;;17.08;69.04;100381.80;1401865;88;21399;-91
2021/09/13 06:40:26;;;;;;;9.53;6.20;;;;;;;17.26;69.41;100380.52;1401868;88;21336;-90
2021/09/13 06:42:53;;;;;;;8.93;5.63;;;;;;;17.44;69.39;100379.56;1401788;89;21303;-90
2021/09/13 06:45:22;;;;;;;8.33;5.73;;;;;;;17.68;68.98;100377.47;1402006;88;21272;-90
2021/09/13 06:47:51;;;;;;;11.30;5.23;;;;;;;17.89;68.71;100384.11;1396275;88;21221;-91
2021/09/13 06:50:24;;;;;;;7.97;6.20;;;;;;;18.07;67.85;100377.41;1402101;88;21214;-90
2021/09/13 06:52:53;;;;;;;16.90;6.23;;;;;;;18.25;67.51;100376.39;1402015;88;21347;-90
2021/09/13 06:55:21;;;;;;;13.13;6.83;;;;;;;18.34;66.61;100377.87;1401802;88;21336;-89
2021/09/13 06:57:49;;;;;;;10.83;5.87;;;;;;;18.44;66.39;100380.16;1402299;88;21406;-88
2021/09/13 07:00:19;;;;;;;9.43;6.10;;;;;;;18.56;66.36;100381.27;1402179;88;21310;-90
2021/09/13 07:02:47;;;;;;;9.13;5.58;;;;;;;18.67;66.13;100376.66;1402033;88;21351;-90
2021/09/13 07:05:35;;;;;;;14.53;6.00;;;;;;;18.68;65.72;100381.50;1403570;87;21377;-86
2021/09/13 07:08:03;;;;;;;10.60;6.00;;;;;;;18.78;65.58;100384.64;1392537;88;21325;-88
2021/09/13 07:10:36;;;;;;;7.95;5.20;;;;;;;19.00;65.67;100388.00;1360656;90;21428;-88
2021/09/13 07:13:03;;;;;;;15.38;6.00;;;;;;;19.24;65.41;100387.09;1384280;88;21303;-88
2021/09/13 07:15:30;;;;;;;15.08;5.90;;;;;;;19.34;64.36;100387.01;1374516;90;21377;-88
2021/09/13 07:17:58;;;;;;;8.75;6.47;;;;;;;19.28;64.35;100391.86;1392206;88;21287;-88
2021/09/13 07:20:26;;;;;;;16.67;7.53;;;;;;;19.46;64.35;100386.39;1391766;88;21193;-83
2021/09/13 07:22:53;;;;;;;10.58;6.45;;;;;;;19.56;63.73;100396.17;1391950;88;21221;-84
2021/09/13 07:25:21;;;;;;;15.32;7.00;;;;;;;19.58;64.00;100394.12;1391916;88;21208;-84
2021/09/13 07:27:48;;;;;;;11.80;7.10;;;;;;;19.77;63.93;100397.34;1391887;88;21207;-84
2021/09/13 07:30:16;;;;;;;9.98;6.17;;;;;;;19.98;63.66;100394.92;1392333;88;21274;-83
2021/09/13 07:32:43;;;;;;;9.93;6.37;;;;;;;20.18;63.20;100394.88;1391624;88;21310;-84
2021/09/13 07:35:11;;;;;;;12.25;6.40;;;;;;;20.38;62.37;100399.36;1391455;88;21214;-85
